Time;durP1;ratioP1;P1;durP2;ratioP2;P2;SDS_P1;SDS_P2;PMS_P1;PMS_P2;Temp;Humidity;BMP_temperature;BMP_pressure;BME280_temperature;BME280_humidity;BME280_pressure;Samples;Min_cycle;Max_cycle;Signal;HPM_P1;HPM_P2
2022/04/25 00:00:00;;;;;;;;;23.67;18.67;;;;;15.50;46.90;100296.97;5019199;28;45506;-70
2022/04/25 00:02:26;;;;;;;;;18.67;17.00;;;;;15.72;47.24;100339.94;5016432;28;48764;-71
2022/04/25 00:04:51;;;;;;;;;20.00;18.00;;;;;15.70;47.18;100341.97;5013087;28;45369;-70
2022/04/25 00:07:17;;;;;;;;;18.67;18.67;;;;;15.30;46.92;100278.97;5001149;28;45370;-72
2022/04/25 00:09:44;;;;;;;;;22.33;16.67;;;;;15.79;46.75;100343.53;5018549;28;45334;-69
2022/04/25 00:12:09;;;;;;;;;19.33;16.00;;;;;15.67;46.68;100318.25;4996881;28;47287;-70
2022/04/25 00:14:35;;;;;;;;;19.00;19.00;;;;;15.78;46.81;100341.84;5014940;28;45333;-70
2022/04/25 00:17:04;;;;;;;;;12.67;12.67;;;;;15.70;46.13;100316.00;5019105;28;45474;-74
2022/04/25 00:19:29;;;;;;;;;20.00;16.33;;;;;15.76;46.67;100343.91;5018455;28;45186;-70
2022/04/25 00:21:54;;;;;;;;;17.67;17.67;;;;;15.14;46.46;100240.66;5018228;28;46622;-70
2022/04/25 00:24:20;;;;;;;;;28.33;18.00;;;;;15.66;46.23;100338.84;5002756;28;45544;-71
2022/04/25 00:26:46;;;;;;;;;15.00;13.33;;;;;15.29;47.04;100307.59;4981288;28;45291;-70
2022/04/25 00:29:12;;;;;;;;;19.33;17.00;;;;;15.48;46.96;100341.88;5013091;28;45599;-68
2022/04/25 00:31:38;;;;;;;;;22.00;17.00;;;;;15.47;46.91;100345.56;5017128;28;47084;-69
2022/04/25 00:34:03;;;;;;;;;18.67;18.00;;;;;15.23;47.09;100312.88;5013174;28;45345;-69
2022/04/25 00:36:29;;;;;;;;;24.33;22.00;;;;;15.35;47.07;100344.34;4980588;28;45277;-70
2022/04/25 00:38:54;;;;;;;;;17.33;17.33;;;;;14.46;47.37;100208.81;5007559;28;45389;-70
2022/04/25 00:41:20;;;;;;;;;27.00;26.00;;;;;15.25;47.25;100338.47;5018375;28;45862;-71
2022/04/25 00:43:45;;;;;;;;;30.33;29.00;;;;;13.13;46.99;99980.47;5012488;28;45380;-70
2022/04/25 00:46:20;;;;;;;;;34.00;29.33;;;;;15.32;47.00;100339.38;5018240;28;45227;-70
2022/04/25 00:48:46;;;;;;;;;34.33;28.67;;;;;15.23;47.14;100335.13;5017876;28;45265;-70
2022/04/25 00:51:12;;;;;;;;;30.67;27.33;;;;;15.27;47.46;100338.28;5017080;28;46623;-68
2022/04/25 00:53:37;;;;;;;;;38.33;35.67;;;;;15.21;47.21;100337.13;5015947;28;45504;-69
2022/04/25 00:56:03;;;;;;;;;29.00;26.33;;;;;15.13;47.65;100334.56;5017445;28;45458;-70
2022/04/25 00:58:29;;;;;;;;;38.67;31.67;;;;;14.37;47.51;100225.91;5018049;28;45496;-70
2022/04/25 01:00:54;;;;;;;;;37.00;34.67;;;;;15.16;47.23;100339.53;5022212;28;46096;-69
2022/04/25 01:03:19;;;;;;;;;51.33;40.33;;;;;15.13;47.36;100350.63;5000450;28;45433;-69
2022/04/25 01:05:48;;;;;;;;;31.33;29.33;;;;;15.06;47.17;100329.13;5017774;28;45161;-70
2022/04/25 01:08:13;;;;;;;;;35.67;31.00;;;;;15.16;47.68;100345.72;4993124;28;45263;-69
2022/04/25 01:10:39;;;;;;;;;33.33;28.00;;;;;14.95;47.46;100318.84;4997862;28;46098;-68
2022/04/25 01:13:04;;;;;;;;;26.67;23.00;;;;;15.06;47.73;100342.50;5006452;28;45507;-70
2022/04/25 01:15:31;;;;;;;;;18.67;16.67;;;;;14.59;47.62;100263.31;4980008;28;45262;-71
2022/04/25 01:17:56;;;;;;;;;16.33;15.00;;;;;14.95;47.69;100331.41;5001744;28;45504;-69
2022/04/25 01:20:22;;;;;;;;;23.00;23.00;;;;;14.87;48.34;100341.19;5017437;28;45474;-69
2022/04/25 01:22:56;;;;;;;;;22.67;19.00;;;;;14.77;48.05;100321.84;5016517;28;45405;-70
2022/04/25 01:28:05;;;;;;;;;21.33;21.33;;;;;14.76;48.53;100340.78;5017006;28;45446;-70
2022/04/25 01:30:33;;;;;;;;;23.67;20.67;;;;;14.79;48.69;100335.88;5017005;28;45517;-70
2022/04/25 01:32:59;;;;;;;;;14.33;10.67;;;;;14.76;48.98;100332.75;5005427;28;46098;-70
2022/04/25 01:35:31;;;;;;;;;17.67;15.67;;;;;14.78;48.57;100339.56;5013550;28;45345;-71
2022/04/25 01:37:57;;;;;;;;;16.33;16.33;;;;;14.78;48.24;100330.72;5017809;28;45215;-69
2022/04/25 01:40:24;;;;;;;;;28.00;19.33;;;;;14.52;49.11;100315.06;5016677;28;47009;-70
2022/04/25 01:42:49;;;;;;;;;21.67;20.33;;;;;14.59;49.44;100342.75;5005291;28;45262;-69
2022/04/25 01:45:14;;;;;;;;;19.67;18.67;;;;;14.49;49.46;100321.63;5011312;28;45256;-69
2022/04/25 01:47:44;;;;;;;;;17.00;16.67;;;;;14.61;49.58;100344.22;5015389;28;45488;-69
2022/04/25 01:50:09;;;;;;;;;11.00;8.67;;;;;14.47;49.66;100345.03;4999122;28;46737;-68
2022/04/25 01:52:35;;;;;;;;;20.00;19.00;;;;;14.24;49.80;100302.22;4998795;28;45495;-70
2022/04/25 01:55:02;;;;;;;;;21.67;16.67;;;;;13.58;50.09;100194.09;4995827;28;45235;-69
2022/04/25 01:57:28;;;;;;;;;17.33;17.33;;;;;14.34;50.51;100350.09;5014331;28;45576;-69
2022/04/25 01:59:54;;;;;;;;;24.67;18.67;;;;;14.48;50.34;100359.25;5015831;28;46117;-69
2022/04/25 02:02:22;;;;;;;;;23.00;20.00;;;;;14.49;50.18;100353.72;5005157;28;45483;-70
2022/04/25 02:04:47;;;;;;;;;18.33;17.33;;;;;14.42;50.38;100376.81;5016545;28;45567;-70
2022/04/25 02:07:13;;;;;;;;;18.33;17.00;;;;;14.24;50.83;100346.84;5016927;28;45143;-71
2022/04/25 02:09:39;;;;;;;;;22.67;20.33;;;;;14.29;51.09;100360.50;5025753;28;45704;-70
2022/04/25 02:12:06;;;;;;;;;21.67;18.33;;;;;14.30;51.13;100365.69;5019728;28;45760;-70
2022/04/25 02:14:31;;;;;;;;;20.00;16.00;;;;;14.20;51.29;100359.72;4995907;28;45316;-71
2022/04/25 02:17:03;;;;;;;;;22.67;20.00;;;;;14.00;51.17;100324.56;5006192;28;45902;-70
2022/04/25 02:19:29;;;;;;;;;20.00;19.00;;;;;14.28;51.29;100380.25;5014370;28;48180;-70
2022/04/25 02:21:56;;;;;;;;;26.33;21.33;;;;;14.20;50.85;100362.38;5015376;28;45241;-69
2022/04/25 02:24:22;;;;;;;;;22.00;20.67;;;;;14.33;51.37;100380.53;5015975;28;45492;-70
2022/04/25 02:26:49;;;;;;;;;17.00;15.67;;;;;14.18;51.45;100363.56;5016789;28;45533;-70
2022/04/25 02:29:16;;;;;;;;;22.33;21.00;;;;;12.76;52.01;100163.44;5015733;28;46039;-69
2022/04/25 02:31:42;;;;;;;;;24.67;21.33;;;;;13.94;52.38;100367.22;5001350;28;45425;-70
2022/04/25 02:34:07;;;;;;;;;28.67;21.67;;;;;13.88;52.30;100354.56;5007788;28;45535;-70
2022/04/25 02:36:34;;;;;;;;;23.00;21.33;;;;;13.73;52.70;100319.72;5016749;28;45139;-69
2022/04/25 02:38:59;;;;;;;;;22.00;20.67;;;;;13.97;52.61;100361.53;5015542;28;45593;-68
2022/04/25 02:41:25;;;;;;;;;22.00;21.00;;;;;14.02;52.36;100372.53;5003958;28;45412;-70
2022/04/25 02:43:50;;;;;;;;;21.67;20.00;;;;;13.97;52.48;100356.19;5006535;28;45546;-69
2022/04/25 02:46:17;;;;;;;;;26.33;21.33;;;;;14.09;52.55;100381.50;5014862;28;45491;-71
2022/04/25 02:48:45;;;;;;;;;21.33;21.00;;;;;14.16;51.87;100384.31;5015279;28;45363;-70
2022/04/25 02:51:14;;;;;;;;;22.67;20.67;;;;;14.14;52.09;100363.09;4998293;28;45505;-70
2022/04/25 02:53:41;;;;;;;;;22.67;18.33;;;;;14.03;52.15;100346.66;5015896;28;45436;-70
2022/04/25 02:56:07;;;;;;;;;25.33;20.67;;;;;14.26;52.18;100380.41;4998439;28;45298;-70
2022/04/25 02:58:34;;;;;;;;;20.67;19.33;;;;;13.97;52.14;100348.16;5015192;28;45391;-70
2022/04/25 03:01:04;;;;;;;;;18.67;18.67;;;;;13.95;52.20;100336.81;5008235;28;45393;-70
2022/04/25 03:03:32;;;;;;;;;25.33;20.67;;;;;14.20;52.27;100378.44;4982276;28;45359;-69
2022/04/25 03:05:57;;;;;;;;;31.33;22.67;;;;;14.12;53.02;100380.31;5011541;28;45559;-72
2022/04/25 03:08:23;;;;;;;;;27.33;24.00;;;;;13.95;52.87;100371.56;4997153;28;47530;-70
2022/04/25 03:10:52;;;;;;;;;24.00;21.67;;;;;14.13;52.43;100388.16;5015897;28;45513;-70
2022/04/25 03:13:18;;;;;;;;;26.67;23.00;;;;;14.06;53.50;100389.88;5011744;28;45199;-70
2022/04/25 03:15:46;;;;;;;;;26.33;25.33;;;;;13.92;53.64;100385.28;5014899;28;45492;-70
2022/04/25 03:18:14;;;;;;;;;23.67;22.00;;;;;13.83;53.55;100383.66;5015323;28;46108;-70
2022/04/25 03:20:42;;;;;;;;;27.00;27.00;;;;;13.96;53.75;100394.59;5015472;28;45475;-68
2022/04/25 03:23:07;;;;;;;;;25.33;25.33;;;;;13.87;54.19;100379.63;5014938;28;45733;-70
2022/04/25 03:25:33;;;;;;;;;23.00;19.67;;;;;13.65;54.81;100379.38;4997679;28;45615;-69
2022/04/25 03:28:00;;;;;;;;;26.33;23.00;;;;;13.69;54.71;100378.03;5014098;28;46441;-69
2022/04/25 03:30:25;;;;;;;;;28.00;25.00;;;;;13.60;54.82;100360.34;5015647;28;45530;-70
2022/04/25 03:32:52;;;;;;;;;25.33;22.67;;;;;13.85;54.89;100387.00;4983603;28;45256;-70
2022/04/25 03:35:18;;;;;;;;;27.00;25.00;;;;;13.79;54.80;100368.97;5019930;28;45468;-70
2022/04/25 03:37:46;;;;;;;;;26.67;21.00;;;;;13.75;54.67;100383.69;5018521;28;45651;-70
2022/04/25 03:40:13;;;;;;;;;27.33;27.00;;;;;13.56;55.28;100383.06;5018191;28;45246;-71
2022/04/25 03:42:40;;;;;;;;;30.33;26.67;;;;;13.62;55.51;100397.59;5018716;28;45216;-70
2022/04/25 03:45:07;;;;;;;;;24.00;22.33;;;;;13.48;55.27;100369.75;5018645;28;45400;-70
2022/04/25 03:47:32;;;;;;;;;26.00;22.00;;;;;13.57;55.47;100383.91;5017517;28;48888;-68
2022/04/25 03:49:58;;;;;;;;;25.00;23.67;;;;;13.31;56.08;100366.28;5018094;28;47140;-70
2022/04/25 03:52:23;;;;;;;;;27.67;24.33;;;;;13.27;56.16;100373.00;5001163;28;45262;-69
2022/04/25 03:57:34;;;;;;;;;28.33;26.00;;;;;12.79;56.20;100288.47;4999104;28;45283;-69
2022/04/25 03:59:59;;;;;;;;;23.33;22.00;;;;;11.20;56.19;100036.75;4996345;28;46020;-70
2022/04/25 04:02:25;;;;;;;;;24.33;24.00;;;;;13.48;56.64;100412.50;5018486;28;45321;-69
2022/04/25 04:04:50;;;;;;;;;28.00;26.67;;;;;13.48;56.78;100415.16;5018604;28;45581;-69
2022/04/25 04:07:15;;;;;;;;;25.00;23.00;;;;;13.49;56.41;100414.16;5018270;28;46331;-69
2022/04/25 04:09:47;;;;;;;;;30.33;28.00;;;;;13.12;57.02;100371.16;4999166;28;45294;-70
2022/04/25 04:12:18;;;;;;;;;29.33;26.33;;;;;13.34;56.88;100411.34;5018042;28;45510;-70
2022/04/25 04:14:44;;;;;;;;;32.33;27.33;;;;;12.67;57.38;100324.50;5018214;28;45467;-69
2022/04/25 04:17:10;;;;;;;;;26.67;25.00;;;;;12.90;58.28;100391.34;5000114;28;46406;-70
2022/04/25 04:19:36;;;;;;;;;24.67;24.67;;;;;13.05;58.21;100419.03;5017879;28;45220;-70
2022/04/25 04:22:05;;;;;;;;;30.00;26.67;;;;;12.12;58.30;100280.69;5017126;28;45539;-69
2022/04/25 04:24:32;;;;;;;;;29.67;27.33;;;;;12.07;58.39;100279.50;5000434;28;45514;-69
2022/04/25 04:27:02;;;;;;;;;28.33;27.33;;;;;12.81;58.54;100393.16;5016797;28;47924;-70
2022/04/25 04:29:31;;;;;;;;;32.33;27.67;;;;;12.96;58.74;100428.88;4999913;28;46590;-70
2022/04/25 04:31:58;;;;;;;;;38.33;32.00;;;;;12.88;59.30;100431.53;5018175;28;45270;-69
2022/04/25 04:34:24;;;;;;;;;27.00;25.67;;;;;12.91;58.75;100431.22;5033368;28;45499;-68
2022/04/25 04:36:51;;;;;;;;;30.67;24.67;;;;;12.97;58.82;100422.53;5018318;28;46372;-69
2022/04/25 04:39:17;;;;;;;;;27.67;27.00;;;;;12.74;58.83;100398.34;5016391;28;45340;-68
2022/04/25 04:41:45;;;;;;;;;31.67;30.67;;;;;12.86;59.36;100438.88;5016726;28;45632;-69
2022/04/25 04:44:11;;;;;;;;;24.67;21.67;;;;;12.86;59.46;100451.38;4999675;28;45382;-68
2022/04/25 04:46:36;;;;;;;;;31.67;30.00;;;;;12.92;58.98;100459.56;5017817;28;46503;-69
2022/04/25 04:49:02;;;;;;;;;32.00;29.33;;;;;12.78;59.56;100437.03;5017630;28;45333;-70
2022/04/25 04:51:27;;;;;;;;;27.67;26.33;;;;;12.90;59.17;100461.56;5007067;28;45534;-70
2022/04/25 04:53:53;;;;;;;;;36.67;31.00;;;;;12.87;59.40;100451.22;5015041;28;45333;-70
2022/04/25 04:56:18;;;;;;;;;33.67;31.00;;;;;12.73;58.96;100433.19;5017962;28;46175;-70
2022/04/25 04:58:43;;;;;;;;;32.00;31.00;;;;;12.26;59.41;100375.16;4996129;28;45306;-70
2022/04/25 05:01:09;;;;;;;;;32.67;31.33;;;;;12.57;59.83;100433.16;5006433;28;45747;-69
2022/04/25 05:03:34;;;;;;;;;29.00;28.33;;;;;12.77;59.96;100471.88;5017901;28;46303;-70
2022/04/25 05:06:00;;;;;;;;;32.33;28.00;;;;;12.62;59.94;100447.69;5017809;28;46417;-70
2022/04/25 05:08:25;;;;;;;;;22.00;19.00;;;;;12.69;60.49;100471.88;5017026;28;45265;-69
2022/04/25 05:10:53;;;;;;;;;37.67;32.00;;;;;12.67;60.51;100482.72;5009507;28;45264;-70
2022/04/25 05:13:20;;;;;;;;;31.67;30.33;;;;;12.79;60.21;100485.88;5010291;28;45504;-69
2022/04/25 05:15:46;;;;;;;;;41.75;36.00;;;;;12.85;60.02;100493.25;5017188;28;46450;-68
2022/04/25 05:18:11;;;;;;;;;32.33;30.67;;;;;12.68;59.72;100473.72;5017889;28;45313;-69
2022/04/25 05:20:37;;;;;;;;;38.75;33.25;;;;;12.45;60.20;100449.50;5016791;28;45409;-69
2022/04/25 05:23:03;;;;;;;;;38.33;33.00;;;;;12.79;60.39;100496.53;5017923;28;45301;-68
2022/04/25 05:25:29;;;;;;;;;37.67;32.67;;;;;12.85;60.08;100498.59;5016787;28;46425;-70
2022/04/25 05:27:56;;;;;;;;;45.00;36.00;;;;;12.79;60.25;100499.22;5015895;28;45264;-70
2022/04/25 05:30:23;;;;;;;;;45.00;36.00;;;;;12.83;60.02;100497.09;5016036;28;45498;-69
2022/04/25 05:32:54;;;;;;;;;45.00;36.75;;;;;12.87;59.46;100509.91;5007558;28;45563;-71
2022/04/25 05:35:22;;;;;;;;;43.33;36.00;;;;;12.79;59.78;100491.22;4999853;28;46410;-70
2022/04/25 05:37:47;;;;;;;;;42.33;34.67;;;;;12.96;59.70;100506.25;5008999;28;45227;-69
2022/04/25 05:40:14;;;;;;;;;46.67;38.67;;;;;12.76;59.69;100488.88;5004154;28;45231;-71
2022/04/25 05:42:41;;;;;;;;;40.00;33.00;;;;;12.81;60.17;100515.88;5015093;28;45325;-71
2022/04/25 05:45:08;;;;;;;;;41.75;33.75;;;;;12.65;60.68;100515.88;5016385;28;46098;-70
2022/04/25 05:47:33;;;;;;;;;47.25;39.25;;;;;12.64;60.20;100523.03;5017406;28;45363;-69
2022/04/25 05:52:44;;;;;;;;;44.33;38.33;;;;;12.22;61.52;100499.06;5016350;28;45305;-69
2022/04/25 05:55:10;;;;;;;;;45.00;37.25;;;;;12.25;61.08;100509.41;5015706;28;45788;-70
2022/04/25 05:57:36;;;;;;;;;45.75;38.00;;;;;12.37;61.47;100525.94;5017107;28;45397;-69
2022/04/25 06:00:01;;;;;;;;;45.50;36.50;;;;;12.51;60.78;100544.00;5008529;28;45392;-69
2022/04/25 06:02:27;;;;;;;;;50.00;39.50;;;;;11.61;61.02;100392.69;4995699;28;45245;-72
2022/04/25 06:04:52;;;;;;;;;47.50;40.00;;;;;12.65;60.53;100534.56;4996807;28;46498;-72
2022/04/25 06:07:17;;;;;;;;;46.00;39.75;;;;;12.71;60.19;100541.88;5010702;28;45471;-73
2022/04/25 06:09:43;;;;;;;;;47.50;39.00;;;;;12.70;60.22;100554.41;5016320;28;45389;-71
2022/04/25 06:12:09;;;;;;;;;48.50;40.00;;;;;12.55;59.63;100512.50;4997072;28;45409;-69
2022/04/25 06:14:34;;;;;;;;;49.50;39.75;;;;;12.87;59.13;100549.09;4991950;28;47099;-70
2022/04/25 06:17:00;;;;;;;;;41.75;36.00;;;;;12.70;58.94;100530.38;5005712;28;45603;-70
2022/04/25 06:19:25;;;;;;;;;46.75;39.00;;;;;12.68;58.67;100511.03;4994617;28;45559;-69
2022/04/25 06:21:51;;;;;;;;;46.75;40.25;;;;;12.99;58.41;100556.63;4989946;28;45500;-70
2022/04/25 06:24:17;;;;;;;;;50.25;41.00;;;;;12.89;58.59;100523.09;5008289;28;46505;-70
2022/04/25 06:26:43;;;;;;;;;47.50;39.75;;;;;12.60;57.99;100464.84;5001850;28;45520;-67
2022/04/25 06:29:08;;;;;;;;;49.50;42.00;;;;;13.14;57.63;100551.47;5002963;28;45593;-70
2022/04/25 06:31:34;;;;;;;;;50.75;40.75;;;;;13.06;58.03;100544.31;4999096;28;45356;-68
2022/04/25 06:33:59;;;;;;;;;49.25;39.25;;;;;13.05;58.36;100553.31;5006908;28;46405;-70
2022/04/25 06:36:25;;;;;;;;;55.25;46.00;;;;;12.70;57.16;100477.03;5008355;28;45393;-69
2022/04/25 06:38:53;;;;;;;;;56.00;44.00;;;;;13.18;57.03;100558.19;4996806;28;45492;-68
2022/04/25 06:41:21;;;;;;;;;49.00;41.25;;;;;13.36;56.70;100563.38;4996154;28;45464;-68
2022/04/25 06:43:46;;;;;;;;;51.00;43.00;;;;;13.46;56.44;100565.88;5000752;28;45283;-69
2022/04/25 06:46:12;;;;;;;;;48.00;39.50;;;;;13.47;56.64;100555.03;4997720;28;45345;-72
2022/04/25 06:48:37;;;;;;;;;49.50;40.50;;;;;13.58;55.79;100552.00;5013826;28;45335;-68
2022/04/25 06:51:02;;;;;;;;;50.00;40.25;;;;;13.84;55.19;100578.56;5000134;28;45447;-69
2022/04/25 06:53:28;;;;;;;;;48.75;41.00;;;;;13.57;55.30;100549.50;5006733;28;45715;-70
2022/04/25 06:55:53;;;;;;;;;49.00;40.75;;;;;13.65;55.15;100574.41;5010772;28;45265;-72
2022/04/25 06:58:19;;;;;;;;;54.75;43.25;;;;;13.75;55.37;100587.56;4997882;28;45428;-68
2022/04/25 07:00:46;;;;;;;;;49.00;41.75;;;;;13.05;55.59;100462.56;5008550;28;45583;-70
2022/04/25 07:03:12;;;;;;;;;54.50;44.50;;;;;13.64;55.11;100579.91;5012988;28;45934;-68
2022/04/25 07:05:37;;;;;;;;;52.50;42.50;;;;;13.21;55.34;100530.31;5015822;28;45350;-69
2022/04/25 07:08:03;;;;;;;;;50.50;39.25;;;;;13.18;56.45;100590.22;5031364;28;45962;-71
2022/04/25 07:10:28;;;;;;;;;52.50;43.00;;;;;12.98;56.99;100581.63;5016126;28;45380;-69
2022/04/25 07:12:56;;;;;;;;;51.50;42.75;;;;;13.06;57.11;100589.69;4998217;28;46157;-69
2022/04/25 07:15:22;;;;;;;;;54.25;42.00;;;;;13.27;56.52;100601.75;5003365;28;45379;-69
2022/04/25 07:17:55;;;;;;;;;51.25;42.25;;;;;13.22;56.41;100572.06;4988603;28;45330;-68
2022/04/25 07:20:20;;;;;;;;;51.25;42.50;;;;;13.05;55.87;100553.31;5008892;28;45602;-68
2022/04/25 07:30:58;;;;;;;;;52.00;42.00;;;;;13.82;54.18;100536.97;5011847;28;45392;-68
2022/04/25 07:33:26;;;;;;;;;55.25;45.00;;;;;14.43;52.85;100600.50;5015382;28;45497;-68
2022/04/25 07:35:53;;;;;;;;;52.00;41.75;;;;;14.46;52.55;100607.34;5015194;28;45460;-68
2022/04/25 07:38:18;;;;;;;;;52.00;44.75;;;;;14.50;52.25;100612.16;4997861;28;45367;-68
2022/04/25 07:40:44;;;;;;;;;53.50;43.00;;;;;14.44;52.40;100602.19;5006896;28;45409;-68
2022/04/25 07:43:10;;;;;;;;;55.25;46.00;;;;;14.53;52.08;100602.97;4983540;28;46603;-67
2022/04/25 07:45:35;;;;;;;;;55.50;46.25;;;;;14.72;51.95;100613.25;5015401;28;46458;-67
2022/04/25 07:48:01;;;;;;;;;56.00;46.00;;;;;14.07;51.80;100525.22;5006479;28;45195;-69
2022/04/25 07:50:26;;;;;;;;;54.75;44.75;;;;;14.54;52.18;100618.00;5001085;28;45251;-68
2022/04/25 07:52:52;;;;;;;;;52.00;44.25;;;;;13.84;51.91;100473.50;5011397;28;46394;-68
2022/04/25 07:55:17;;;;;;;;;56.50;46.00;;;;;14.93;51.44;100615.31;5008397;28;45462;-69
2022/04/25 07:57:43;;;;;;;;;46.75;40.25;;;;;15.39;49.88;100623.41;4983516;28;45525;-69
2022/04/25 08:00:08;;;;;;;;;39.75;36.50;;;;;15.47;49.49;100618.00;5004186;28;45625;-68
2022/04/25 08:02:34;;;;;;;;;52.25;43.00;;;;;15.24;49.07;100567.13;5010557;28;46417;-68
2022/04/25 08:05:00;;;;;;;;;45.25;37.75;;;;;15.55;48.90;100606.38;5011105;28;45490;-70
2022/04/25 08:07:26;;;;;;;;;48.50;39.75;;;;;15.86;48.53;100638.50;4997938;28;45416;-68
2022/04/25 08:09:52;;;;;;;;;51.00;40.50;;;;;15.82;48.18;100620.09;5015735;28;45500;-69
2022/04/25 08:18:00;;;;;;;;;48.25;40.50;;;;;16.03;47.65;100640.88;5018023;28;45385;-69
2022/04/25 08:20:30;;;;;;;;;44.75;39.75;;;;;15.82;48.24;100646.91;5018916;28;45492;-68
2022/04/25 08:22:57;;;;;;;;;53.75;41.75;;;;;15.77;48.13;100643.09;5000010;28;47338;-69
2022/04/25 08:25:22;;;;;;;;;48.75;42.00;;;;;15.95;48.12;100650.81;5017199;28;46075;-69
2022/04/25 08:27:48;;;;;;;;;54.50;43.50;;;;;15.80;47.36;100630.16;5015288;28;45263;-73
2022/04/25 08:30:14;;;;;;;;;47.25;40.00;;;;;15.55;48.01;100601.03;5017025;28;45644;-69
2022/04/25 08:32:40;;;;;;;;;46.00;38.00;;;;;16.05;47.83;100636.16;5018295;28;46678;-68
2022/04/25 08:35:05;;;;;;;;;47.50;40.75;;;;;15.75;47.18;100540.59;5014193;28;45374;-66
2022/04/25 08:37:31;;;;;;;;;52.00;42.50;;;;;16.07;46.81;100572.44;5002461;28;45321;-65
2022/04/25 08:39:56;;;;;;;;;47.75;38.75;;;;;16.33;46.19;100595.28;5018383;28;45565;-67
2022/04/25 08:42:22;;;;;;;;;51.00;42.25;;;;;16.92;45.23;100643.59;5018372;28;46390;-66
2022/04/25 08:44:55;;;;;;;;;46.50;38.00;;;;;17.03;44.34;100613.56;5016997;28;46329;-67
2022/04/25 08:47:24;;;;;;;;;44.00;37.00;;;;;17.79;43.08;100641.66;5033495;28;45220;-66
2022/04/25 08:49:50;;;;;;;;;40.00;34.50;;;;;17.83;42.60;100664.47;5016426;28;45384;-66
2022/04/25 08:52:17;;;;;;;;;42.00;37.67;;;;;18.16;42.16;100653.13;5017665;28;46351;-68
2022/04/25 08:54:43;;;;;;;;;47.50;41.25;;;;;18.15;42.25;100670.28;5017425;28;45346;-67
2022/04/25 08:57:10;;;;;;;;;42.33;37.33;;;;;18.39;41.68;100663.63;5018004;28;45556;-68
2022/04/25 08:59:37;;;;;;;;;41.33;35.67;;;;;18.71;40.74;100640.66;5003700;28;45459;-66
2022/04/25 09:02:02;;;;;;;;;42.67;36.67;;;;;19.28;39.91;100664.53;5006083;28;45407;-67
2022/04/25 09:04:28;;;;;;;;;45.67;36.67;;;;;19.17;38.86;100630.06;5008639;28;45686;-67
2022/04/25 09:06:55;;;;;;;;;42.00;35.00;;;;;19.67;38.50;100671.91;5015156;28;45438;-67
2022/04/25 09:09:21;;;;;;;;;39.00;35.67;;;;;20.05;38.16;100642.47;5017874;28;45589;-66
2022/04/25 09:14:32;;;;;;;;;36.67;34.67;;;;;21.74;34.41;100652.25;5017837;28;45441;-68
2022/04/25 09:16:58;;;;;;;;;42.00;35.33;;;;;22.63;32.76;100660.03;4995625;28;45493;-68
2022/04/25 09:19:25;;;;;;;;;40.67;36.33;;;;;23.29;31.44;100642.97;4998201;28;45599;-68
2022/04/25 09:21:51;;;;;;;;;33.67;32.67;;;;;24.68;29.76;100670.59;5007952;28;46756;-67
2022/04/25 09:24:21;;;;;;;;;40.00;34.33;;;;;25.01;28.40;100596.53;4979824;28;45430;-67
2022/04/25 09:26:48;;;;;;;;;39.33;34.00;;;;;26.31;27.03;100666.31;4991289;28;45480;-67
2022/04/25 09:29:13;;;;;;;;;41.00;35.67;;;;;26.48;26.23;100606.34;4980419;28;45255;-67
2022/04/25 09:31:47;;;;;;;;;34.33;33.00;;;;;27.18;25.67;100676.53;5008479;28;45622;-67
2022/04/25 09:34:15;;;;;;;;;39.00;34.33;;;;;27.48;25.06;100642.47;5021906;28;45476;-68
2022/04/25 09:36:48;;;;;;;;;42.33;36.00;;;;;28.64;24.30;100680.06;5000574;28;45300;-67
2022/04/25 09:39:32;;;;;;;;;36.00;33.00;;;;;29.17;22.91;100658.94;4997197;28;45363;-66
2022/04/25 09:42:00;;;;;;;;;39.33;33.67;;;;;29.34;23.28;100671.31;5009741;28;45707;-67
2022/04/25 09:44:26;;;;;;;;;37.67;34.33;;;;;29.65;22.46;100669.50;5005320;28;45283;-68
2022/04/25 09:46:51;;;;;;;;;35.00;31.67;;;;;29.15;22.28;100524.25;5013358;28;45471;-68
2022/04/25 09:49:20;;;;;;;;;37.00;33.33;;;;;30.35;22.33;100664.28;4980082;28;45384;-67
2022/04/25 09:52:04;;;;;;;;;35.00;33.67;;;;;30.77;21.09;100677.63;4997581;28;46679;-68
2022/04/25 09:54:30;;;;;;;;;41.67;36.00;;;;;31.16;21.42;100666.75;4996803;28;45389;-74
2022/04/25 09:56:56;;;;;;;;;34.33;32.33;;;;;31.64;20.25;100680.81;5011271;28;45562;-67
2022/04/25 09:59:22;;;;;;;;;39.67;35.33;;;;;30.57;19.75;100582.47;5017165;28;45510;-67
2022/04/25 10:02:09;;;;;;;;;34.00;31.00;;;;;30.63;20.78;100684.81;4999263;28;45902;-69
2022/04/25 10:04:36;;;;;;;;;35.00;32.33;;;;;30.80;21.20;100682.56;4996739;28;45424;-68
2022/04/25 10:07:05;;;;;;;;;38.67;34.33;;;;;30.62;20.92;100680.41;5000599;28;45287;-67
2022/04/25 10:09:32;;;;;;;;;36.00;33.67;;;;;29.87;21.07;100586.19;4993625;28;45727;-67
2022/04/25 10:12:01;;;;;;;;;33.00;31.00;;;;;29.80;21.23;100634.97;5003279;28;46760;-68
2022/04/25 10:14:27;;;;;;;;;36.33;32.33;;;;;29.00;22.70;100681.06;5016381;28;45459;-69
2022/04/25 10:16:56;;;;;;;;;36.67;33.67;;;;;27.07;24.07;100594.81;4997679;28;45256;-68
2022/04/25 10:19:23;;;;;;;;;39.33;33.00;;;;;26.71;25.33;100664.47;5000239;28;45448;-68
2022/04/25 10:21:52;;;;;;;;;41.00;33.67;;;;;25.73;26.28;100686.63;5004979;28;45710;-69
2022/04/25 10:24:20;;;;;;;;;36.67;33.67;;;;;24.97;27.68;100670.66;5010727;28;45487;-69
2022/04/25 10:26:48;;;;;;;;;39.33;33.00;;;;;24.18;28.84;100660.19;5001437;28;45448;-68
2022/04/25 10:29:27;;;;;;;;;32.33;31.00;;;;;23.25;29.24;100584.00;5014651;28;45537;-71
2022/04/25 10:31:58;;;;;;;;;42.67;37.00;;;;;23.42;29.97;100681.81;4996612;28;48542;-67
2022/04/25 10:34:45;;;;;;;;;38.00;33.33;;;;;22.60;31.04;100652.34;5011359;28;45262;-68
2022/04/25 10:37:29;;;;;;;;;35.33;31.00;;;;;22.40;31.21;100697.75;5016338;28;45299;-67
2022/04/25 10:39:56;;;;;;;;;39.33;31.67;;;;;22.03;31.78;100686.81;5012516;28;45236;-68
2022/04/25 10:45:06;;;;;;;;;33.67;30.00;;;;;21.28;32.43;100693.97;4999203;28;45334;-68
2022/04/25 10:47:31;;;;;;;;;25.67;25.00;;;;;20.85;32.37;100702.63;5010873;28;45452;-67
2022/04/25 10:49:57;;;;;;;;;29.00;28.33;;;;;20.59;33.06;100700.78;5007908;28;45958;-66
2022/04/25 10:52:56;;;;;;;;;34.33;31.00;;;;;20.26;33.22;100700.81;4996739;28;46335;-66
2022/04/25 10:55:34;;;;;;;;;35.33;32.00;;;;;19.75;35.35;100703.25;4993189;28;45591;-68
2022/04/25 10:58:02;;;;;;;;;35.67;32.67;;;;;18.80;36.79;100621.44;4996496;28;45274;-66
2022/04/25 11:00:37;;;;;;;;;32.67;30.00;;;;;19.17;36.54;100700.13;4997992;28;45338;-70
2022/04/25 11:03:10;;;;;;;;;34.67;31.00;;;;;19.17;36.34;100699.31;5009957;28;46456;-69
2022/04/25 11:05:48;;;;;;;;;19.33;19.33;;;;;18.78;34.80;100655.00;5014771;28;45295;-68
2022/04/25 11:08:19;;;;;;;;;32.67;29.00;;;;;18.90;36.02;100701.91;5016136;28;45225;-68
2022/04/25 11:10:54;;;;;;;;;21.67;20.00;;;;;18.62;35.25;100674.13;5015206;28;45337;-68
2022/04/25 11:13:20;;;;;;;;;21.33;21.33;;;;;17.70;34.42;100583.66;4986574;28;45452;-70
2022/04/25 11:15:54;;;;;;;;;27.67;24.33;;;;;17.76;34.93;100588.25;4997743;28;45311;-69
2022/04/25 11:21:04;;;;;;;;;23.67;22.33;;;;;17.62;34.63;100624.09;4997214;28;45412;-66
2022/04/25 11:23:31;;;;;;;;;22.00;20.67;;;;;18.03;35.36;100675.41;4985462;28;46117;-68
2022/04/25 11:26:01;;;;;;;;;29.00;25.33;;;;;18.11;35.83;100695.94;5008608;28;45571;-68
2022/04/25 11:28:28;;;;;;;;;24.33;21.33;;;;;18.11;35.88;100712.06;4996826;28;45584;-69
2022/04/25 11:31:12;;;;;;;;;20.33;19.00;;;;;17.80;35.84;100705.16;4995063;28;45596;-69
2022/04/25 11:33:42;;;;;;;;;22.33;21.00;;;;;17.52;35.83;100674.66;5005321;28;45897;-68
2022/04/25 11:36:11;;;;;;;;;25.00;20.67;;;;;17.20;35.81;100660.66;5003492;28;45528;-68
2022/04/25 11:41:27;;;;;;;;;26.33;20.33;;;;;17.10;35.21;100609.09;5013580;28;45330;-67